sensor_id;sensor_type;location;lat;lon;timestamp;P1;durP1;ratioP1;P2;durP2;ratioP2
21860;SDS011;11095;48.066;8.540;2023-09-19T00:01:32;3.28;;;1.80;;
21860;SDS011;11095;48.066;8.540;2023-09-19T00:03:58;3.05;;;1.70;;
21860;SDS011;11095;48.066;8.540;2023-09-19T00:06:25;2.92;;;1.90;;
21860;SDS011;11095;48.066;8.540;2023-09-19T00:08:53;2.17;;;1.80;;
21860;SDS011;11095;48.066;8.540;2023-09-19T00:11:19;2.60;;;1.98;;
21860;SDS011;11095;48.066;8.540;2023-09-19T00:13:47;3.50;;;2.00;;
21860;SDS011;11095;48.066;8.540;2023-09-19T00:16:14;4.07;;;2.15;;
21860;SDS011;11095;48.066;8.540;2023-09-19T00:18:40;2.38;;;1.95;;
21860;SDS011;11095;48.066;8.540;2023-09-19T00:21:06;2.90;;;2.15;;
21860;SDS011;11095;48.066;8.540;2023-09-19T00:23:32;3.05;;;2.33;;
21860;SDS011;11095;48.066;8.540;2023-09-19T00:25:58;2.30;;;1.90;;
21860;SDS011;11095;48.066;8.540;2023-09-19T00:28:25;2.85;;;2.13;;
21860;SDS011;11095;48.066;8.540;2023-09-19T00:30:51;3.25;;;1.92;;
21860;SDS011;11095;48.066;8.540;2023-09-19T00:33:16;4.05;;;2.17;;
21860;SDS011;11095;48.066;8.540;2023-09-19T00:35:50;3.65;;;2.25;;
21860;SDS011;11095;48.066;8.540;2023-09-19T00:38:17;2.30;;;2.10;;
21860;SDS011;11095;48.066;8.540;2023-09-19T00:40:49;2.13;;;1.92;;
21860;SDS011;11095;48.066;8.540;2023-09-19T00:43:18;3.33;;;2.30;;
21860;SDS011;11095;48.066;8.540;2023-09-19T00:45:45;2.40;;;2.20;;
21860;SDS011;11095;48.066;8.540;2023-09-19T00:48:13;2.92;;;2.22;;
21860;SDS011;11095;48.066;8.540;2023-09-19T00:50:41;2.92;;;2.20;;
21860;SDS011;11095;48.066;8.540;2023-09-19T00:53:09;2.97;;;2.35;;
21860;SDS011;11095;48.066;8.540;2023-09-19T00:55:39;2.45;;;2.20;;
21860;SDS011;11095;48.066;8.540;2023-09-19T00:58:07;3.38;;;2.30;;
21860;SDS011;11095;48.066;8.540;2023-09-19T01:00:33;3.63;;;2.63;;
21860;SDS011;11095;48.066;8.540;2023-09-19T01:02:59;3.65;;;2.42;;
21860;SDS011;11095;48.066;8.540;2023-09-19T01:05:28;3.27;;;2.37;;
21860;SDS011;11095;48.066;8.540;2023-09-19T01:07:57;5.07;;;2.40;;
21860;SDS011;11095;48.066;8.540;2023-09-19T01:10:23;3.50;;;2.22;;
21860;SDS011;11095;48.066;8.540;2023-09-19T01:13:00;3.90;;;2.58;;
21860;SDS011;11095;48.066;8.540;2023-09-19T01:18:15;3.22;;;2.63;;
21860;SDS011;11095;48.066;8.540;2023-09-19T01:20:51;4.10;;;2.60;;
21860;SDS011;11095;48.066;8.540;2023-09-19T01:31:19;4.15;;;2.50;;
21860;SDS011;11095;48.066;8.540;2023-09-19T01:34:21;4.63;;;2.40;;
21860;SDS011;11095;48.066;8.540;2023-09-19T01:36:40;3.13;;;2.40;;
21860;SDS011;11095;48.066;8.540;2023-09-19T01:39:07;3.58;;;2.80;;
21860;SDS011;11095;48.066;8.540;2023-09-19T01:41:41;3.00;;;2.30;;
21860;SDS011;11095;48.066;8.540;2023-09-19T01:44:22;3.28;;;2.50;;
21860;SDS011;11095;48.066;8.540;2023-09-19T01:46:54;3.67;;;2.40;;
21860;SDS011;11095;48.066;8.540;2023-09-19T01:49:35;4.55;;;2.72;;
21860;SDS011;11095;48.066;8.540;2023-09-19T01:54:55;4.25;;;2.67;;
21860;SDS011;11095;48.066;8.540;2023-09-19T01:57:28;5.20;;;2.72;;
21860;SDS011;11095;48.066;8.540;2023-09-19T02:00:02;4.43;;;2.83;;
21860;SDS011;11095;48.066;8.540;2023-09-19T02:02:34;4.18;;;2.63;;
21860;SDS011;11095;48.066;8.540;2023-09-19T02:05:02;5.03;;;2.50;;
21860;SDS011;11095;48.066;8.540;2023-09-19T02:07:29;5.07;;;3.10;;
21860;SDS011;11095;48.066;8.540;2023-09-19T02:09:56;3.70;;;2.60;;
21860;SDS011;11095;48.066;8.540;2023-09-19T02:12:31;2.65;;;2.42;;
21860;SDS011;11095;48.066;8.540;2023-09-19T02:14:58;4.80;;;2.80;;
21860;SDS011;11095;48.066;8.540;2023-09-19T02:17:24;4.75;;;2.75;;
21860;SDS011;11095;48.066;8.540;2023-09-19T02:19:53;3.28;;;2.45;;
21860;SDS011;11095;48.066;8.540;2023-09-19T02:22:20;4.60;;;3.03;;
21860;SDS011;11095;48.066;8.540;2023-09-19T02:24:46;3.55;;;2.55;;
21860;SDS011;11095;48.066;8.540;2023-09-19T02:27:13;3.25;;;2.63;;
21860;SDS011;11095;48.066;8.540;2023-09-19T02:29:41;3.90;;;2.30;;
21860;SDS011;11095;48.066;8.540;2023-09-19T02:32:07;4.03;;;2.50;;
21860;SDS011;11095;48.066;8.540;2023-09-19T02:34:34;3.72;;;2.35;;
21860;SDS011;11095;48.066;8.540;2023-09-19T02:37:01;3.53;;;2.25;;
21860;SDS011;11095;48.066;8.540;2023-09-19T02:39:30;3.03;;;2.50;;
21860;SDS011;11095;48.066;8.540;2023-09-19T02:41:56;3.10;;;2.13;;
21860;SDS011;11095;48.066;8.540;2023-09-19T02:44:22;1.98;;;1.75;;
21860;SDS011;11095;48.066;8.540;2023-09-19T02:46:48;2.83;;;1.90;;
21860;SDS011;11095;48.066;8.540;2023-09-19T02:49:14;2.55;;;1.73;;
21860;SDS011;11095;48.066;8.540;2023-09-19T02:51:40;3.67;;;1.80;;
21860;SDS011;11095;48.066;8.540;2023-09-19T02:54:06;2.75;;;1.85;;
21860;SDS011;11095;48.066;8.540;2023-09-19T02:56:32;2.03;;;1.80;;
21860;SDS011;11095;48.066;8.540;2023-09-19T02:58:58;3.05;;;1.83;;
21860;SDS011;11095;48.066;8.540;2023-09-19T03:01:25;4.70;;;1.90;;
21860;SDS011;11095;48.066;8.540;2023-09-19T03:03:53;3.67;;;2.10;;
21860;SDS011;11095;48.066;8.540;2023-09-19T03:06:19;1.65;;;1.50;;
21860;SDS011;11095;48.066;8.540;2023-09-19T03:08:45;2.78;;;1.70;;
21860;SDS011;11095;48.066;8.540;2023-09-19T03:11:11;2.63;;;1.70;;
21860;SDS011;11095;48.066;8.540;2023-09-19T03:13:39;2.20;;;1.52;;
21860;SDS011;11095;48.066;8.540;2023-09-19T03:16:06;2.33;;;1.50;;
21860;SDS011;11095;48.066;8.540;2023-09-19T03:18:35;2.75;;;1.48;;
21860;SDS011;11095;48.066;8.540;2023-09-19T03:21:01;2.33;;;1.40;;
21860;SDS011;11095;48.066;8.540;2023-09-19T03:23:27;1.98;;;1.27;;
21860;SDS011;11095;48.066;8.540;2023-09-19T03:25:54;1.48;;;1.20;;
21860;SDS011;11095;48.066;8.540;2023-09-19T03:28:21;2.63;;;1.38;;
21860;SDS011;11095;48.066;8.540;2023-09-19T03:30:57;2.45;;;1.42;;
21860;SDS011;11095;48.066;8.540;2023-09-19T03:33:29;2.20;;;1.45;;
21860;SDS011;11095;48.066;8.540;2023-09-19T03:35:58;2.67;;;1.10;;
21860;SDS011;11095;48.066;8.540;2023-09-19T03:38:26;2.45;;;1.00;;
21860;SDS011;11095;48.066;8.540;2023-09-19T03:40:53;1.52;;;1.20;;
21860;SDS011;11095;48.066;8.540;2023-09-19T03:43:19;1.95;;;1.20;;
21860;SDS011;11095;48.066;8.540;2023-09-19T03:45:45;1.25;;;1.10;;
21860;SDS011;11095;48.066;8.540;2023-09-19T03:48:12;1.20;;;0.98;;
21860;SDS011;11095;48.066;8.540;2023-09-19T03:50:38;1.38;;;1.10;;
21860;SDS011;11095;48.066;8.540;2023-09-19T03:53:04;2.03;;;1.00;;
21860;SDS011;11095;48.066;8.540;2023-09-19T03:55:32;1.70;;;1.00;;
21860;SDS011;11095;48.066;8.540;2023-09-19T03:58:00;1.70;;;1.20;;
21860;SDS011;11095;48.066;8.540;2023-09-19T04:00:26;1.80;;;1.00;;
21860;SDS011;11095;48.066;8.540;2023-09-19T04:02:52;2.20;;;1.30;;
21860;SDS011;11095;48.066;8.540;2023-09-19T04:05:18;1.80;;;1.20;;
21860;SDS011;11095;48.066;8.540;2023-09-19T04:07:44;2.00;;;1.40;;
21860;SDS011;11095;48.066;8.540;2023-09-19T04:10:10;1.98;;;1.30;;
21860;SDS011;11095;48.066;8.540;2023-09-19T04:12:39;1.75;;;1.30;;
21860;SDS011;11095;48.066;8.540;2023-09-19T04:15:05;2.78;;;1.50;;
21860;SDS011;11095;48.066;8.540;2023-09-19T04:17:31;2.08;;;1.42;;
21860;SDS011;11095;48.066;8.540;2023-09-19T04:20:00;1.95;;;1.27;;
21860;SDS011;11095;48.066;8.540;2023-09-19T04:22:26;1.50;;;1.23;;
21860;SDS011;11095;48.066;8.540;2023-09-19T04:24:51;2.28;;;1.30;;
21860;SDS011;11095;48.066;8.540;2023-09-19T04:27:17;3.13;;;1.50;;
21860;SDS011;11095;48.066;8.540;2023-09-19T04:29:43;1.30;;;1.02;;
21860;SDS011;11095;48.066;8.540;2023-09-19T04:32:09;3.35;;;1.60;;
21860;SDS011;11095;48.066;8.540;2023-09-19T04:34:36;1.25;;;1.10;;
21860;SDS011;11095;48.066;8.540;2023-09-19T04:37:03;2.47;;;1.10;;
21860;SDS011;11095;48.066;8.540;2023-09-19T04:39:29;1.42;;;1.15;;
21860;SDS011;11095;48.066;8.540;2023-09-19T04:41:54;1.80;;;1.10;;
21860;SDS011;11095;48.066;8.540;2023-09-19T04:44:20;3.08;;;1.30;;
21860;SDS011;11095;48.066;8.540;2023-09-19T04:46:46;1.58;;;1.30;;
21860;SDS011;11095;48.066;8.540;2023-09-19T04:49:12;2.55;;;1.50;;
21860;SDS011;11095;48.066;8.540;2023-09-19T04:51:38;2.72;;;1.10;;
21860;SDS011;11095;48.066;8.540;2023-09-19T04:54:04;1.27;;;1.15;;
21860;SDS011;11095;48.066;8.540;2023-09-19T04:56:30;1.50;;;1.20;;
21860;SDS011;11095;48.066;8.540;2023-09-19T04:58:57;1.27;;;1.10;;
21860;SDS011;11095;48.066;8.540;2023-09-19T05:01:23;1.85;;;1.20;;
21860;SDS011;11095;48.066;8.540;2023-09-19T05:03:49;1.88;;;1.20;;
21860;SDS011;11095;48.066;8.540;2023-09-19T05:06:18;1.63;;;1.05;;
21860;SDS011;11095;48.066;8.540;2023-09-19T05:08:47;4.10;;;1.30;;
21860;SDS011;11095;48.066;8.540;2023-09-19T05:11:16;1.40;;;1.10;;
21860;SDS011;11095;48.066;8.540;2023-09-19T05:13:46;3.28;;;1.20;;
21860;SDS011;11095;48.066;8.540;2023-09-19T05:16:12;1.95;;;1.20;;
21860;SDS011;11095;48.066;8.540;2023-09-19T05:18:38;2.03;;;1.23;;
21860;SDS011;11095;48.066;8.540;2023-09-19T05:21:04;2.13;;;1.60;;
21860;SDS011;11095;48.066;8.540;2023-09-19T05:23:30;1.80;;;1.30;;
21860;SDS011;11095;48.066;8.540;2023-09-19T05:25:56;1.65;;;1.40;;
21860;SDS011;11095;48.066;8.540;2023-09-19T05:28:25;2.67;;;1.50;;
21860;SDS011;11095;48.066;8.540;2023-09-19T05:30:51;2.50;;;1.40;;
21860;SDS011;11095;48.066;8.540;2023-09-19T05:33:18;1.50;;;1.20;;
21860;SDS011;11095;48.066;8.540;2023-09-19T05:35:44;1.67;;;1.25;;
21860;SDS011;11095;48.066;8.540;2023-09-19T05:38:12;1.17;;;0.80;;
21860;SDS011;11095;48.066;8.540;2023-09-19T05:40:38;1.23;;;0.73;;
21860;SDS011;11095;48.066;8.540;2023-09-19T05:43:07;2.47;;;0.80;;
21860;SDS011;11095;48.066;8.540;2023-09-19T05:45:33;1.10;;;0.80;;
21860;SDS011;11095;48.066;8.540;2023-09-19T05:48:06;1.00;;;0.60;;
21860;SDS011;11095;48.066;8.540;2023-09-19T05:50:33;1.15;;;0.70;;
21860;SDS011;11095;48.066;8.540;2023-09-19T05:52:59;0.73;;;0.50;;
21860;SDS011;11095;48.066;8.540;2023-09-19T05:55:24;1.80;;;0.70;;
21860;SDS011;11095;48.066;8.540;2023-09-19T05:57:50;1.05;;;0.60;;
21860;SDS011;11095;48.066;8.540;2023-09-19T06:00:18;1.27;;;0.60;;
21860;SDS011;11095;48.066;8.540;2023-09-19T06:02:54;0.90;;;0.70;;
21860;SDS011;11095;48.066;8.540;2023-09-19T06:05:22;1.17;;;0.73;;
21860;SDS011;11095;48.066;8.540;2023-09-19T06:07:48;0.98;;;0.60;;
21860;SDS011;11095;48.066;8.540;2023-09-19T06:10:15;2.20;;;0.57;;
21860;SDS011;11095;48.066;8.540;2023-09-19T06:12:42;0.80;;;0.50;;
21860;SDS011;11095;48.066;8.540;2023-09-19T06:15:11;1.00;;;0.60;;
21860;SDS011;11095;48.066;8.540;2023-09-19T06:17:47;1.00;;;0.50;;
21860;SDS011;11095;48.066;8.540;2023-09-19T06:20:13;0.93;;;0.70;;
21860;SDS011;11095;48.066;8.540;2023-09-19T06:22:40;0.82;;;0.77;;
21860;SDS011;11095;48.066;8.540;2023-09-19T06:25:09;1.00;;;0.80;;
21860;SDS011;11095;48.066;8.540;2023-09-19T06:27:37;1.58;;;0.75;;
21860;SDS011;11095;48.066;8.540;2023-09-19T06:30:04;2.67;;;0.77;;
21860;SDS011;11095;48.066;8.540;2023-09-19T06:32:31;1.55;;;0.85;;
21860;SDS011;11095;48.066;8.540;2023-09-19T06:34:57;2.28;;;0.90;;
21860;SDS011;11095;48.066;8.540;2023-09-19T06:37:26;0.80;;;0.80;;
21860;SDS011;11095;48.066;8.540;2023-09-19T06:39:53;1.77;;;0.88;;
21860;SDS011;11095;48.066;8.540;2023-09-19T06:42:18;1.75;;;0.90;;
21860;SDS011;11095;48.066;8.540;2023-09-19T06:44:44;1.10;;;0.95;;
21860;SDS011;11095;48.066;8.540;2023-09-19T06:47:09;1.10;;;0.80;;
21860;SDS011;11095;48.066;8.540;2023-09-19T06:49:35;1.38;;;0.77;;
21860;SDS011;11095;48.066;8.540;2023-09-19T06:52:01;0.80;;;0.80;;
21860;SDS011;11095;48.066;8.540;2023-09-19T06:54:27;1.00;;;0.77;;
21860;SDS011;11095;48.066;8.540;2023-09-19T06:56:56;1.27;;;0.85;;
21860;SDS011;11095;48.066;8.540;2023-09-19T06:59:23;2.20;;;0.85;;
21860;SDS011;11095;48.066;8.540;2023-09-19T07:01:49;2.53;;;0.80;;
21860;SDS011;11095;48.066;8.540;2023-09-19T07:04:16;1.02;;;0.70;;
21860;SDS011;11095;48.066;8.540;2023-09-19T07:06:44;1.10;;;0.98;;
21860;SDS011;11095;48.066;8.540;2023-09-19T07:09:11;1.30;;;0.80;;
21860;SDS011;11095;48.066;8.540;2023-09-19T07:11:37;1.52;;;0.90;;
21860;SDS011;11095;48.066;8.540;2023-09-19T07:14:03;1.58;;;0.70;;
21860;SDS011;11095;48.066;8.540;2023-09-19T07:16:30;0.63;;;0.63;;
21860;SDS011;11095;48.066;8.540;2023-09-19T07:18:56;1.02;;;0.63;;
21860;SDS011;11095;48.066;8.540;2023-09-19T07:21:22;1.20;;;0.63;;
21860;SDS011;11095;48.066;8.540;2023-09-19T07:23:49;0.77;;;0.57;;
21860;SDS011;11095;48.066;8.540;2023-09-19T07:26:14;1.13;;;0.60;;
21860;SDS011;11095;48.066;8.540;2023-09-19T07:28:41;1.17;;;0.65;;
21860;SDS011;11095;48.066;8.540;2023-09-19T07:31:07;1.60;;;0.52;;
21860;SDS011;11095;48.066;8.540;2023-09-19T07:33:35;1.00;;;0.50;;
21860;SDS011;11095;48.066;8.540;2023-09-19T07:36:01;1.33;;;0.65;;
21860;SDS011;11095;48.066;8.540;2023-09-19T07:38:26;1.58;;;0.50;;
21860;SDS011;11095;48.066;8.540;2023-09-19T07:40:52;1.35;;;0.60;;
21860;SDS011;11095;48.066;8.540;2023-09-19T07:43:18;0.98;;;0.60;;
21860;SDS011;11095;48.066;8.540;2023-09-19T07:45:43;1.60;;;0.60;;
21860;SDS011;11095;48.066;8.540;2023-09-19T07:48:09;1.08;;;0.70;;
21860;SDS011;11095;48.066;8.540;2023-09-19T07:50:39;0.98;;;0.60;;
21860;SDS011;11095;48.066;8.540;2023-09-19T07:53:08;1.10;;;0.65;;
21860;SDS011;11095;48.066;8.540;2023-09-19T07:55:33;1.17;;;0.80;;
21860;SDS011;11095;48.066;8.540;2023-09-19T07:57:59;1.55;;;0.80;;
21860;SDS011;11095;48.066;8.540;2023-09-19T08:00:25;1.45;;;0.50;;
21860;SDS011;11095;48.066;8.540;2023-09-19T08:02:51;1.52;;;0.80;;
21860;SDS011;11095;48.066;8.540;2023-09-19T08:05:19;2.08;;;0.65;;
21860;SDS011;11095;48.066;8.540;2023-09-19T08:07:45;0.95;;;0.68;;
21860;SDS011;11095;48.066;8.540;2023-09-19T08:10:14;2.20;;;0.67;;
21860;SDS011;11095;48.066;8.540;2023-09-19T08:12:44;0.50;;;0.40;;
21860;SDS011;11095;48.066;8.540;2023-09-19T08:17:39;0.90;;;0.60;;
21860;SDS011;11095;48.066;8.540;2023-09-19T08:20:05;1.40;;;0.60;;
21860;SDS011;11095;48.066;8.540;2023-09-19T08:22:32;0.98;;;0.43;;
21860;SDS011;11095;48.066;8.540;2023-09-19T08:24:57;0.50;;;0.50;;
21860;SDS011;11095;48.066;8.540;2023-09-19T08:27:23;0.85;;;0.52;;
21860;SDS011;11095;48.066;8.540;2023-09-19T08:29:52;1.25;;;0.70;;
21860;SDS011;11095;48.066;8.540;2023-09-19T08:32:18;0.93;;;0.65;;
21860;SDS011;11095;48.066;8.540;2023-09-19T08:34:48;0.93;;;0.50;;
21860;SDS011;11095;48.066;8.540;2023-09-19T08:37:14;0.70;;;0.50;;
21860;SDS011;11095;48.066;8.540;2023-09-19T08:39:40;1.42;;;0.40;;
21860;SDS011;11095;48.066;8.540;2023-09-19T08:42:06;0.70;;;0.50;;
21860;SDS011;11095;48.066;8.540;2023-09-19T08:44:35;0.82;;;0.50;;
21860;SDS011;11095;48.066;8.540;2023-09-19T08:47:11;0.80;;;0.60;;
21860;SDS011;11095;48.066;8.540;2023-09-19T08:49:57;0.63;;;0.50;;
21860;SDS011;11095;48.066;8.540;2023-09-19T08:52:42;0.57;;;0.40;;
21860;SDS011;11095;48.066;8.540;2023-09-19T08:55:13;0.80;;;0.50;;
21860;SDS011;11095;48.066;8.540;2023-09-19T08:57:46;1.48;;;0.63;;
21860;SDS011;11095;48.066;8.540;2023-09-19T09:00:14;0.88;;;0.47;;
21860;SDS011;11095;48.066;8.540;2023-09-19T09:02:42;1.17;;;0.70;;
21860;SDS011;11095;48.066;8.540;2023-09-19T09:05:09;1.65;;;0.50;;
21860;SDS011;11095;48.066;8.540;2023-09-19T09:07:40;1.15;;;0.60;;
21860;SDS011;11095;48.066;8.540;2023-09-19T09:10:06;1.27;;;0.60;;
21860;SDS011;11095;48.066;8.540;2023-09-19T09:12:33;0.88;;;0.70;;
21860;SDS011;11095;48.066;8.540;2023-09-19T09:15:01;1.30;;;0.70;;
21860;SDS011;11095;48.066;8.540;2023-09-19T09:17:28;1.98;;;0.80;;
21860;SDS011;11095;48.066;8.540;2023-09-19T09:19:54;1.30;;;0.60;;
21860;SDS011;11095;48.066;8.540;2023-09-19T09:22:21;2.78;;;0.85;;
21860;SDS011;11095;48.066;8.540;2023-09-19T09:24:56;1.58;;;0.70;;
21860;SDS011;11095;48.066;8.540;2023-09-19T09:27:30;2.13;;;0.70;;
21860;SDS011;11095;48.066;8.540;2023-09-19T09:29:57;2.75;;;0.70;;
21860;SDS011;11095;48.066;8.540;2023-09-19T09:32:24;1.17;;;0.60;;
21860;SDS011;11095;48.066;8.540;2023-09-19T09:34:53;1.50;;;0.77;;
21860;SDS011;11095;48.066;8.540;2023-09-19T09:37:24;1.00;;;0.77;;
21860;SDS011;11095;48.066;8.540;2023-09-19T09:39:58;1.67;;;0.68;;
21860;SDS011;11095;48.066;8.540;2023-09-19T09:42:43;1.38;;;0.80;;
21860;SDS011;11095;48.066;8.540;2023-09-19T09:47:41;0.98;;;0.70;;
21860;SDS011;11095;48.066;8.540;2023-09-19T09:50:22;1.48;;;0.80;;
21860;SDS011;11095;48.066;8.540;2023-09-19T09:58:23;1.33;;;0.70;;
21860;SDS011;11095;48.066;8.540;2023-09-19T10:00:54;1.10;;;0.65;;
21860;SDS011;11095;48.066;8.540;2023-09-19T10:03:31;2.03;;;0.70;;
21860;SDS011;11095;48.066;8.540;2023-09-19T10:05:59;1.15;;;0.73;;
21860;SDS011;11095;48.066;8.540;2023-09-19T10:08:34;1.77;;;0.65;;
21860;SDS011;11095;48.066;8.540;2023-09-19T10:11:00;2.05;;;0.82;;
21860;SDS011;11095;48.066;8.540;2023-09-19T10:13:31;1.13;;;0.82;;
21860;SDS011;11095;48.066;8.540;2023-09-19T10:16:03;1.50;;;0.73;;
21860;SDS011;11095;48.066;8.540;2023-09-19T10:18:35;2.13;;;0.80;;
21860;SDS011;11095;48.066;8.540;2023-09-19T10:21:03;1.67;;;0.80;;
21860;SDS011;11095;48.066;8.540;2023-09-19T10:23:31;2.00;;;1.10;;
21860;SDS011;11095;48.066;8.540;2023-09-19T10:25:59;1.25;;;0.77;;
21860;SDS011;11095;48.066;8.540;2023-09-19T10:28:26;0.93;;;0.68;;
21860;SDS011;11095;48.066;8.540;2023-09-19T10:30:54;0.80;;;0.63;;
21860;SDS011;11095;48.066;8.540;2023-09-19T10:33:24;1.92;;;0.90;;
21860;SDS011;11095;48.066;8.540;2023-09-19T10:35:54;1.35;;;0.95;;
21860;SDS011;11095;48.066;8.540;2023-09-19T10:38:25;1.55;;;1.10;;
21860;SDS011;11095;48.066;8.540;2023-09-19T10:40:53;2.13;;;1.00;;
21860;SDS011;11095;48.066;8.540;2023-09-19T10:43:20;1.73;;;1.02;;
21860;SDS011;11095;48.066;8.540;2023-09-19T10:45:50;1.30;;;0.90;;
21860;SDS011;11095;48.066;8.540;2023-09-19T10:48:17;1.20;;;0.80;;
21860;SDS011;11095;48.066;8.540;2023-09-19T10:53:24;1.10;;;0.93;;
21860;SDS011;11095;48.066;8.540;2023-09-19T10:55:56;2.40;;;1.00;;
21860;SDS011;11095;48.066;8.540;2023-09-19T10:58:31;1.13;;;0.82;;
21860;SDS011;11095;48.066;8.540;2023-09-19T11:00:59;1.30;;;0.80;;
21860;SDS011;11095;48.066;8.540;2023-09-19T11:03:37;2.17;;;0.90;;
21860;SDS011;11095;48.066;8.540;2023-09-19T11:06:12;2.53;;;1.10;;
21860;SDS011;11095;48.066;8.540;2023-09-19T11:30:46;1.77;;;1.20;;
21860;SDS011;11095;48.066;8.540;2023-09-19T11:33:26;2.42;;;1.20;;
21860;SDS011;11095;48.066;8.540;2023-09-19T11:47:16;1.92;;;1.00;;
21860;SDS011;11095;48.066;8.540;2023-09-19T11:49:35;1.65;;;1.02;;
21860;SDS011;11095;48.066;8.540;2023-09-19T11:52:05;1.50;;;1.20;;
21860;SDS011;11095;48.066;8.540;2023-09-19T11:54:33;1.50;;;1.20;;
21860;SDS011;11095;48.066;8.540;2023-09-19T11:57:01;1.77;;;1.20;;
21860;SDS011;11095;48.066;8.540;2023-09-19T11:59:28;1.15;;;1.00;;
21860;SDS011;11095;48.066;8.540;2023-09-19T12:02:00;2.47;;;1.00;;
21860;SDS011;11095;48.066;8.540;2023-09-19T12:04:38;2.25;;;1.10;;
21860;SDS011;11095;48.066;8.540;2023-09-19T12:07:10;1.40;;;0.88;;
21860;SDS011;11095;48.066;8.540;2023-09-19T12:12:25;3.05;;;1.13;;
21860;SDS011;11095;48.066;8.540;2023-09-19T12:15:00;1.98;;;1.10;;
21860;SDS011;11095;48.066;8.540;2023-09-19T12:17:38;1.25;;;1.00;;
21860;SDS011;11095;48.066;8.540;2023-09-19T12:20:06;2.03;;;1.17;;
21860;SDS011;11095;48.066;8.540;2023-09-19T12:22:44;1.65;;;0.93;;
21860;SDS011;11095;48.066;8.540;2023-09-19T12:25:11;3.00;;;1.10;;
21860;SDS011;11095;48.066;8.540;2023-09-19T12:27:42;1.00;;;0.80;;
21860;SDS011;11095;48.066;8.540;2023-09-19T12:30:13;1.90;;;1.05;;
21860;SDS011;11095;48.066;8.540;2023-09-19T12:32:39;1.65;;;1.10;;
21860;SDS011;11095;48.066;8.540;2023-09-19T12:35:06;1.23;;;0.85;;
21860;SDS011;11095;48.066;8.540;2023-09-19T12:37:44;1.73;;;1.00;;
21860;SDS011;11095;48.066;8.540;2023-09-19T12:42:50;2.63;;;1.10;;
21860;SDS011;11095;48.066;8.540;2023-09-19T12:45:18;1.80;;;0.85;;
21860;SDS011;11095;48.066;8.540;2023-09-19T12:53:33;1.35;;;0.90;;
21860;SDS011;11095;48.066;8.540;2023-09-19T12:56:04;0.90;;;0.90;;
21860;SDS011;11095;48.066;8.540;2023-09-19T12:58:33;1.35;;;1.05;;
21860;SDS011;11095;48.066;8.540;2023-09-19T13:01:00;1.63;;;1.10;;
21860;SDS011;11095;48.066;8.540;2023-09-19T13:03:27;2.00;;;1.00;;
21860;SDS011;11095;48.066;8.540;2023-09-19T13:05:57;1.20;;;1.10;;
21860;SDS011;11095;48.066;8.540;2023-09-19T13:08:35;1.40;;;1.00;;
21860;SDS011;11095;48.066;8.540;2023-09-19T13:11:11;1.90;;;1.30;;
21860;SDS011;11095;48.066;8.540;2023-09-19T13:16:10;1.52;;;0.98;;
21860;SDS011;11095;48.066;8.540;2023-09-19T13:18:49;1.02;;;0.82;;
21860;SDS011;11095;48.066;8.540;2023-09-19T13:21:27;1.42;;;1.00;;
21860;SDS011;11095;48.066;8.540;2023-09-19T13:23:54;1.48;;;1.10;;
21860;SDS011;11095;48.066;8.540;2023-09-19T13:26:27;1.35;;;0.90;;
21860;SDS011;11095;48.066;8.540;2023-09-19T13:28:53;1.30;;;0.80;;
21860;SDS011;11095;48.066;8.540;2023-09-19T13:31:19;1.20;;;0.90;;
21860;SDS011;11095;48.066;8.540;2023-09-19T13:33:46;1.75;;;1.00;;
21860;SDS011;11095;48.066;8.540;2023-09-19T13:36:13;1.40;;;1.00;;
21860;SDS011;11095;48.066;8.540;2023-09-19T13:38:41;1.40;;;0.88;;
21860;SDS011;11095;48.066;8.540;2023-09-19T13:41:11;2.28;;;1.08;;
21860;SDS011;11095;48.066;8.540;2023-09-19T13:43:37;2.20;;;1.20;;
21860;SDS011;11095;48.066;8.540;2023-09-19T13:46:03;1.58;;;0.93;;
21860;SDS011;11095;48.066;8.540;2023-09-19T13:48:29;6.10;;;1.25;;
21860;SDS011;11095;48.066;8.540;2023-09-19T13:50:55;2.20;;;1.13;;
21860;SDS011;11095;48.066;8.540;2023-09-19T13:53:21;1.25;;;0.80;;
21860;SDS011;11095;48.066;8.540;2023-09-19T13:55:47;1.30;;;1.05;;
21860;SDS011;11095;48.066;8.540;2023-09-19T13:58:16;3.80;;;1.08;;
21860;SDS011;11095;48.066;8.540;2023-09-19T14:00:41;3.92;;;1.13;;
21860;SDS011;11095;48.066;8.540;2023-09-19T14:03:07;3.60;;;1.08;;
21860;SDS011;11095;48.066;8.540;2023-09-19T14:05:33;3.67;;;0.88;;
21860;SDS011;11095;48.066;8.540;2023-09-19T14:07:59;1.17;;;0.80;;
21860;SDS011;11095;48.066;8.540;2023-09-19T14:10:25;1.30;;;0.80;;
21860;SDS011;11095;48.066;8.540;2023-09-19T14:12:55;1.67;;;0.88;;
21860;SDS011;11095;48.066;8.540;2023-09-19T14:15:22;3.10;;;1.00;;
21860;SDS011;11095;48.066;8.540;2023-09-19T14:17:54;1.45;;;0.82;;
21860;SDS011;11095;48.066;8.540;2023-09-19T14:22:49;1.45;;;0.80;;
21860;SDS011;11095;48.066;8.540;2023-09-19T14:25:16;1.92;;;0.80;;
21860;SDS011;11095;48.066;8.540;2023-09-19T14:27:41;2.63;;;1.10;;
21860;SDS011;11095;48.066;8.540;2023-09-19T14:30:07;0.95;;;0.80;;
21860;SDS011;11095;48.066;8.540;2023-09-19T14:32:34;1.15;;;0.77;;
21860;SDS011;11095;48.066;8.540;2023-09-19T14:35:01;1.58;;;0.80;;
21860;SDS011;11095;48.066;8.540;2023-09-19T14:37:27;2.55;;;0.82;;
21860;SDS011;11095;48.066;8.540;2023-09-19T14:39:53;1.50;;;1.15;;
21860;SDS011;11095;48.066;8.540;2023-09-19T14:42:19;1.38;;;0.90;;
21860;SDS011;11095;48.066;8.540;2023-09-19T14:44:44;0.82;;;0.80;;
21860;SDS011;11095;48.066;8.540;2023-09-19T14:47:12;1.00;;;0.65;;
21860;SDS011;11095;48.066;8.540;2023-09-19T14:49:38;1.25;;;0.85;;
21860;SDS011;11095;48.066;8.540;2023-09-19T14:52:08;2.20;;;0.80;;
21860;SDS011;11095;48.066;8.540;2023-09-19T14:54:34;1.67;;;0.90;;
21860;SDS011;11095;48.066;8.540;2023-09-19T14:57:02;1.33;;;0.73;;
21860;SDS011;11095;48.066;8.540;2023-09-19T14:59:32;1.10;;;0.80;;
21860;SDS011;11095;48.066;8.540;2023-09-19T15:02:01;1.00;;;0.70;;
21860;SDS011;11095;48.066;8.540;2023-09-19T15:04:28;1.42;;;0.90;;
21860;SDS011;11095;48.066;8.540;2023-09-19T15:06:54;1.30;;;0.88;;
21860;SDS011;11095;48.066;8.540;2023-09-19T15:09:21;2.25;;;0.85;;
21860;SDS011;11095;48.066;8.540;2023-09-19T15:11:49;1.85;;;1.10;;
21860;SDS011;11095;48.066;8.540;2023-09-19T15:14:14;1.63;;;0.80;;
21860;SDS011;11095;48.066;8.540;2023-09-19T15:16:40;1.02;;;0.80;;
21860;SDS011;11095;48.066;8.540;2023-09-19T15:19:08;1.10;;;0.90;;
21860;SDS011;11095;48.066;8.540;2023-09-19T15:21:35;0.73;;;0.70;;
21860;SDS011;11095;48.066;8.540;2023-09-19T15:24:02;0.90;;;0.80;;
21860;SDS011;11095;48.066;8.540;2023-09-19T15:26:28;0.90;;;0.63;;
21860;SDS011;11095;48.066;8.540;2023-09-19T15:28:55;1.65;;;0.75;;
21860;SDS011;11095;48.066;8.540;2023-09-19T15:31:20;1.92;;;1.00;;
21860;SDS011;11095;48.066;8.540;2023-09-19T15:33:46;4.45;;;1.20;;
21860;SDS011;11095;48.066;8.540;2023-09-19T15:36:15;2.08;;;0.90;;
21860;SDS011;11095;48.066;8.540;2023-09-19T15:41:25;1.88;;;1.08;;
21860;SDS011;11095;48.066;8.540;2023-09-19T15:43:58;2.70;;;1.10;;
21860;SDS011;11095;48.066;8.540;2023-09-19T15:46:26;1.98;;;1.00;;
21860;SDS011;11095;48.066;8.540;2023-09-19T15:48:54;2.20;;;1.02;;
21860;SDS011;11095;48.066;8.540;2023-09-19T15:51:20;3.13;;;1.10;;
21860;SDS011;11095;48.066;8.540;2023-09-19T15:56:16;3.85;;;1.17;;
21860;SDS011;11095;48.066;8.540;2023-09-19T15:58:45;3.03;;;1.10;;
21860;SDS011;11095;48.066;8.540;2023-09-19T16:01:12;2.60;;;1.05;;
21860;SDS011;11095;48.066;8.540;2023-09-19T16:03:39;1.08;;;0.90;;
21860;SDS011;11095;48.066;8.540;2023-09-19T16:06:12;1.00;;;0.88;;
21860;SDS011;11095;48.066;8.540;2023-09-19T16:08:45;2.05;;;1.00;;
21860;SDS011;11095;48.066;8.540;2023-09-19T16:11:12;1.48;;;1.10;;
21860;SDS011;11095;48.066;8.540;2023-09-19T16:13:39;1.63;;;1.10;;
21860;SDS011;11095;48.066;8.540;2023-09-19T16:16:08;2.13;;;1.08;;